KASJ

Tri-County Airport

Ahoskie, North Carolina, USA
METAR KASJ 140100Z AUTO 00000KT 10SM CLR 05/04 A3036 RMK AO2 T00490040
Observed Flight Rules
Dec-14 @ 01:00 UTC (15 minutes ago) Visual Flight Rules
Visibility Clouds
10 miles
  • Clear skies
Temperatures Readings
Current 5°C / 41°F
Dewpoint 4°C / 39°F
Humidity 93%
Altimeter 30.36" Hg
Pressure 1028 hPa
Elevation 21
METAR KASJ 140100Z AUTO 00000KT 10SM CLR 05/04 A3036 RMK AO2 T00490040
Observed Flight Rules
Dec-14 @ 01:00 UTC
(15 minutes ago)
VFR
Clouds
  • Clear skies
Temperature Dewpoint
5°C / 41°F 4°C / 39°F
Humidity Altimeter Pressure
93% 30.36" Hg 1028 hPa